Aviation Digital Data Service (ADDS)

Output produced by METARs form (1024 UTC 07 February 2016)
found at http://aviationweather.gov/adds/metars/
 
KAUG 070925Z 0709/0806 20006KT P6SM SCT250 
     FM072000 02008KT P6SM SCT050 SCT100